sensor_id;sensor_type;location;lat;lon;timestamp;temperature;humidity
47368;DHT22;34646;47.964;7.982;2023-04-24T00:00:14;16.40;91.60
47368;DHT22;34646;47.964;7.982;2023-04-24T00:06:16;17.10;91.80
47368;DHT22;34646;47.964;7.982;2023-04-24T00:18:18;16.40;91.60
47368;DHT22;34646;47.964;7.982;2023-04-24T00:24:19;16.70;91.70
47368;DHT22;34646;47.964;7.982;2023-04-24T00:30:19;16.40;91.50
47368;DHT22;34646;47.964;7.982;2023-04-24T00:36:20;16.60;91.60
47368;DHT22;34646;47.964;7.982;2023-04-24T00:42:21;16.70;91.60
47368;DHT22;34646;47.964;7.982;2023-04-24T00:48:23;16.50;91.60
47368;DHT22;34646;47.964;7.982;2023-04-24T00:54:24;16.30;91.50
47368;DHT22;34646;47.964;7.982;2023-04-24T01:00:25;16.80;91.70
47368;DHT22;34646;47.964;7.982;2023-04-24T01:06:29;16.70;91.60
47368;DHT22;34646;47.964;7.982;2023-04-24T01:12:32;16.70;85.10
47368;DHT22;34646;47.964;7.982;2023-04-24T01:18:33;16.50;91.50
47368;DHT22;34646;47.964;7.982;2023-04-24T01:24:34;16.70;91.60
47368;DHT22;34646;47.964;7.982;2023-04-24T01:30:35;16.80;91.60
47368;DHT22;34646;47.964;7.982;2023-04-24T01:36:35;16.60;91.60
47368;DHT22;34646;47.964;7.982;2023-04-24T01:42:37;16.40;90.30
47368;DHT22;34646;47.964;7.982;2023-04-24T01:48:38;16.60;91.60
47368;DHT22;34646;47.964;7.982;2023-04-24T01:54:38;16.50;91.50
47368;DHT22;34646;47.964;7.982;2023-04-24T02:00:39;16.60;91.60
47368;DHT22;34646;47.964;7.982;2023-04-24T02:06:40;16.40;91.50
47368;DHT22;34646;47.964;7.982;2023-04-24T02:24:43;16.20;91.50
47368;DHT22;34646;47.964;7.982;2023-04-24T02:30:43;16.50;91.60
47368;DHT22;34646;47.964;7.982;2023-04-24T02:48:46;16.20;91.50
47368;DHT22;34646;47.964;7.982;2023-04-24T02:54:47;16.40;91.50
47368;DHT22;34646;47.964;7.982;2023-04-24T03:00:48;16.30;91.50
47368;DHT22;34646;47.964;7.982;2023-04-24T03:06:48;16.50;91.60
47368;DHT22;34646;47.964;7.982;2023-04-24T03:12:49;16.40;91.60
47368;DHT22;34646;47.964;7.982;2023-04-24T03:18:52;16.30;91.50
47368;DHT22;34646;47.964;7.982;2023-04-24T03:24:54;16.60;91.60
47368;DHT22;34646;47.964;7.982;2023-04-24T03:30:55;16.50;91.60
47368;DHT22;34646;47.964;7.982;2023-04-24T03:36:58;16.20;91.50
47368;DHT22;34646;47.964;7.982;2023-04-24T03:43:00;16.20;91.50
47368;DHT22;34646;47.964;7.982;2023-04-24T03:49:01;16.20;91.50
47368;DHT22;34646;47.964;7.982;2023-04-24T03:55:07;16.30;87.40
47368;DHT22;34646;47.964;7.982;2023-04-24T04:01:14;16.20;91.50
47368;DHT22;34646;47.964;7.982;2023-04-24T04:07:28;16.60;91.60
47368;DHT22;34646;47.964;7.982;2023-04-24T04:13:30;16.20;91.20
47368;DHT22;34646;47.964;7.982;2023-04-24T04:19:31;16.20;91.50
47368;DHT22;34646;47.964;7.982;2023-04-24T04:25:32;16.20;91.50
47368;DHT22;34646;47.964;7.982;2023-04-24T04:31:33;16.70;91.70
47368;DHT22;34646;47.964;7.982;2023-04-24T04:37:38;16.10;91.50
47368;DHT22;34646;47.964;7.982;2023-04-24T04:44:15;16.00;91.50
47368;DHT22;34646;47.964;7.982;2023-04-24T04:50:17;15.90;91.40
47368;DHT22;34646;47.964;7.982;2023-04-24T04:56:20;16.40;91.60
47368;DHT22;34646;47.964;7.982;2023-04-24T05:08:22;16.30;91.80
47368;DHT22;34646;47.964;7.982;2023-04-24T05:14:23;16.20;91.90
47368;DHT22;34646;47.964;7.982;2023-04-24T05:20:24;16.30;91.90
47368;DHT22;34646;47.964;7.982;2023-04-24T05:26:25;16.10;91.90
47368;DHT22;34646;47.964;7.982;2023-04-24T05:32:26;15.90;91.90
47368;DHT22;34646;47.964;7.982;2023-04-24T05:38:29;16.00;91.90
47368;DHT22;34646;47.964;7.982;2023-04-24T05:44:30;16.10;91.90
47368;DHT22;34646;47.964;7.982;2023-04-24T05:50:31;16.10;91.60
47368;DHT22;34646;47.964;7.982;2023-04-24T05:56:31;16.30;92.00
47368;DHT22;34646;47.964;7.982;2023-04-24T06:08:36;16.50;92.00
47368;DHT22;34646;47.964;7.982;2023-04-24T06:14:37;16.30;91.90
47368;DHT22;34646;47.964;7.982;2023-04-24T06:26:52;16.50;92.00
47368;DHT22;34646;47.964;7.982;2023-04-24T06:32:52;16.00;91.80
47368;DHT22;34646;47.964;7.982;2023-04-24T06:38:54;16.10;91.90
47368;DHT22;34646;47.964;7.982;2023-04-24T06:44:54;16.30;91.90
47368;DHT22;34646;47.964;7.982;2023-04-24T06:50:55;16.20;89.70
47368;DHT22;34646;47.964;7.982;2023-04-24T06:56:56;16.20;91.80
47368;DHT22;34646;47.964;7.982;2023-04-24T07:02:57;16.20;86.60
47368;DHT22;34646;47.964;7.982;2023-04-24T07:08:59;16.10;91.80
47368;DHT22;34646;47.964;7.982;2023-04-24T07:15:00;16.00;91.70
47368;DHT22;34646;47.964;7.982;2023-04-24T07:21:01;16.30;89.60
47368;DHT22;34646;47.964;7.982;2023-04-24T07:27:02;16.40;91.70
47368;DHT22;34646;47.964;7.982;2023-04-24T07:33:03;16.20;91.70
47368;DHT22;34646;47.964;7.982;2023-04-24T07:39:04;16.20;91.70
47368;DHT22;34646;47.964;7.982;2023-04-24T07:45:06;16.50;89.90
47368;DHT22;34646;47.964;7.982;2023-04-24T07:51:07;16.10;91.60
47368;DHT22;34646;47.964;7.982;2023-04-24T07:57:10;15.90;91.50
47368;DHT22;34646;47.964;7.982;2023-04-24T08:09:12;16.80;82.10
47368;DHT22;34646;47.964;7.982;2023-04-24T08:15:13;16.00;91.50
47368;DHT22;34646;47.964;7.982;2023-04-24T08:21:14;16.10;91.60
47368;DHT22;34646;47.964;7.982;2023-04-24T08:27:17;16.30;91.60
47368;DHT22;34646;47.964;7.982;2023-04-24T08:33:18;16.20;91.60
47368;DHT22;34646;47.964;7.982;2023-04-24T08:39:18;16.60;91.70
47368;DHT22;34646;47.964;7.982;2023-04-24T08:45:20;16.20;91.60
47368;DHT22;34646;47.964;7.982;2023-04-24T08:51:21;16.30;91.60
47368;DHT22;34646;47.964;7.982;2023-04-24T08:57:22;16.00;85.60
47368;DHT22;34646;47.964;7.982;2023-04-24T09:03:27;16.00;85.10
47368;DHT22;34646;47.964;7.982;2023-04-24T09:09:30;16.40;91.70
47368;DHT22;34646;47.964;7.982;2023-04-24T09:15:31;16.10;91.60
47368;DHT22;34646;47.964;7.982;2023-04-24T09:21:33;15.80;91.50
47368;DHT22;34646;47.964;7.982;2023-04-24T09:27:35;15.90;84.50
47368;DHT22;34646;47.964;7.982;2023-04-24T09:33:36;16.40;91.60
47368;DHT22;34646;47.964;7.982;2023-04-24T09:39:37;16.30;91.50
47368;DHT22;34646;47.964;7.982;2023-04-24T09:45:39;15.80;91.40
47368;DHT22;34646;47.964;7.982;2023-04-24T09:51:40;16.10;91.40
47368;DHT22;34646;47.964;7.982;2023-04-24T09:57:48;16.00;91.40
47368;DHT22;34646;47.964;7.982;2023-04-24T10:03:49;16.40;91.50
47368;DHT22;34646;47.964;7.982;2023-04-24T10:09:51;16.20;91.40
47368;DHT22;34646;47.964;7.982;2023-04-24T10:15:52;16.00;91.30
47368;DHT22;34646;47.964;7.982;2023-04-24T10:21:53;16.10;91.30
47368;DHT22;34646;47.964;7.982;2023-04-24T10:27:56;15.80;91.30
47368;DHT22;34646;47.964;7.982;2023-04-24T10:34:00;16.00;91.30
47368;DHT22;34646;47.964;7.982;2023-04-24T10:40:01;15.70;91.20
47368;DHT22;34646;47.964;7.982;2023-04-24T10:46:03;16.00;91.20
47368;DHT22;34646;47.964;7.982;2023-04-24T10:52:04;16.00;91.30
47368;DHT22;34646;47.964;7.982;2023-04-24T10:58:05;16.00;91.30
47368;DHT22;34646;47.964;7.982;2023-04-24T11:04:06;16.00;91.30
47368;DHT22;34646;47.964;7.982;2023-04-24T11:10:07;16.50;91.50
47368;DHT22;34646;47.964;7.982;2023-04-24T11:22:29;16.00;91.50
47368;DHT22;34646;47.964;7.982;2023-04-24T11:28:33;16.30;91.70
47368;DHT22;34646;47.964;7.982;2023-04-24T11:34:34;15.80;91.60
47368;DHT22;34646;47.964;7.982;2023-04-24T11:40:37;16.20;91.80
47368;DHT22;34646;47.964;7.982;2023-04-24T11:46:38;16.50;91.80
47368;DHT22;34646;47.964;7.982;2023-04-24T11:52:42;16.10;84.10
47368;DHT22;34646;47.964;7.982;2023-04-24T11:58:44;16.30;91.70
47368;DHT22;34646;47.964;7.982;2023-04-24T12:04:44;16.20;91.70
47368;DHT22;34646;47.964;7.982;2023-04-24T12:10:51;16.40;85.30
47368;DHT22;34646;47.964;7.982;2023-04-24T12:16:52;16.10;91.70
47368;DHT22;34646;47.964;7.982;2023-04-24T12:22:54;16.70;91.80
47368;DHT22;34646;47.964;7.982;2023-04-24T12:34:57;16.50;91.50
47368;DHT22;34646;47.964;7.982;2023-04-24T12:41:16;16.80;91.50
47368;DHT22;34646;47.964;7.982;2023-04-24T12:47:18;16.90;91.50
47368;DHT22;34646;47.964;7.982;2023-04-24T12:53:19;16.40;90.60
47368;DHT22;34646;47.964;7.982;2023-04-24T12:59:20;16.60;91.40
47368;DHT22;34646;47.964;7.982;2023-04-24T13:11:21;16.60;91.40
47368;DHT22;34646;47.964;7.982;2023-04-24T13:17:23;16.60;91.40
47368;DHT22;34646;47.964;7.982;2023-04-24T13:23:24;16.40;91.30
47368;DHT22;34646;47.964;7.982;2023-04-24T13:29:24;16.80;91.50
47368;DHT22;34646;47.964;7.982;2023-04-24T13:41:26;17.10;91.50
47368;DHT22;34646;47.964;7.982;2023-04-24T13:47:27;16.90;91.40
47368;DHT22;34646;47.964;7.982;2023-04-24T13:53:27;16.70;91.40
47368;DHT22;34646;47.964;7.982;2023-04-24T13:59:28;16.80;91.40
47368;DHT22;34646;47.964;7.982;2023-04-24T14:05:29;16.50;91.30
47368;DHT22;34646;47.964;7.982;2023-04-24T14:11:30;16.80;84.70
47368;DHT22;34646;47.964;7.982;2023-04-24T14:17:30;16.80;91.40
47368;DHT22;34646;47.964;7.982;2023-04-24T14:23:31;17.10;91.50
47368;DHT22;34646;47.964;7.982;2023-04-24T14:29:32;17.10;91.40
47368;DHT22;34646;47.964;7.982;2023-04-24T14:35:33;16.90;91.40
47368;DHT22;34646;47.964;7.982;2023-04-24T14:41:35;17.30;91.50
47368;DHT22;34646;47.964;7.982;2023-04-24T14:47:37;17.20;91.70
47368;DHT22;34646;47.964;7.982;2023-04-24T14:53:38;16.70;91.60
47368;DHT22;34646;47.964;7.982;2023-04-24T14:59:39;17.10;91.70
47368;DHT22;34646;47.964;7.982;2023-04-24T15:05:39;17.00;91.70
47368;DHT22;34646;47.964;7.982;2023-04-24T15:11:40;17.40;91.80
47368;DHT22;34646;47.964;7.982;2023-04-24T15:17:41;17.00;91.80
47368;DHT22;34646;47.964;7.982;2023-04-24T15:23:41;17.50;91.90
47368;DHT22;34646;47.964;7.982;2023-04-24T15:35:45;17.20;91.80
47368;DHT22;34646;47.964;7.982;2023-04-24T15:41:45;17.30;92.00
47368;DHT22;34646;47.964;7.982;2023-04-24T15:47:46;17.20;92.00
47368;DHT22;34646;47.964;7.982;2023-04-24T15:53:47;17.20;89.80
47368;DHT22;34646;47.964;7.982;2023-04-24T16:05:49;17.10;92.20
47368;DHT22;34646;47.964;7.982;2023-04-24T16:11:49;17.40;92.30
47368;DHT22;34646;47.964;7.982;2023-04-24T16:17:50;17.40;92.30
47368;DHT22;34646;47.964;7.982;2023-04-24T16:23:51;17.40;92.30
47368;DHT22;34646;47.964;7.982;2023-04-24T16:29:51;17.20;92.10
47368;DHT22;34646;47.964;7.982;2023-04-24T16:41:53;17.30;92.10
47368;DHT22;34646;47.964;7.982;2023-04-24T16:47:54;17.10;92.10
47368;DHT22;34646;47.964;7.982;2023-04-24T16:53:55;16.70;92.10
47368;DHT22;34646;47.964;7.982;2023-04-24T16:59:55;17.10;92.20
47368;DHT22;34646;47.964;7.982;2023-04-24T17:05:56;17.30;92.20
47368;DHT22;34646;47.964;7.982;2023-04-24T17:17:58;17.50;92.20
47368;DHT22;34646;47.964;7.982;2023-04-24T17:23:59;17.00;92.10
47368;DHT22;34646;47.964;7.982;2023-04-24T17:29:59;17.20;92.20
47368;DHT22;34646;47.964;7.982;2023-04-24T17:36:00;17.40;92.30
47368;DHT22;34646;47.964;7.982;2023-04-24T17:48:02;17.10;92.20
47368;DHT22;34646;47.964;7.982;2023-04-24T17:54:03;16.60;92.10
47368;DHT22;34646;47.964;7.982;2023-04-24T18:00:04;16.40;92.10
47368;DHT22;34646;47.964;7.982;2023-04-24T18:06:05;17.00;92.30
47368;DHT22;34646;47.964;7.982;2023-04-24T18:18:08;17.00;92.20
47368;DHT22;34646;47.964;7.982;2023-04-24T18:24:08;17.00;92.30
47368;DHT22;34646;47.964;7.982;2023-04-24T18:30:10;17.00;92.40
47368;DHT22;34646;47.964;7.982;2023-04-24T18:36:11;17.40;88.40
47368;DHT22;34646;47.964;7.982;2023-04-24T18:42:11;17.00;92.60
47368;DHT22;34646;47.964;7.982;2023-04-24T18:48:12;17.10;92.60
47368;DHT22;34646;47.964;7.982;2023-04-24T18:54:13;16.90;92.60
47368;DHT22;34646;47.964;7.982;2023-04-24T19:00:14;16.80;92.60
47368;DHT22;34646;47.964;7.982;2023-04-24T19:06:14;17.00;92.70
47368;DHT22;34646;47.964;7.982;2023-04-24T19:18:16;17.20;92.80
47368;DHT22;34646;47.964;7.982;2023-04-24T19:24:17;16.90;92.80
47368;DHT22;34646;47.964;7.982;2023-04-24T19:30:18;17.10;92.90
47368;DHT22;34646;47.964;7.982;2023-04-24T19:36:19;17.00;92.80
47368;DHT22;34646;47.964;7.982;2023-04-24T19:42:20;16.80;92.70
47368;DHT22;34646;47.964;7.982;2023-04-24T19:48:21;17.10;92.80
47368;DHT22;34646;47.964;7.982;2023-04-24T19:54:21;16.70;92.70
47368;DHT22;34646;47.964;7.982;2023-04-24T20:00:22;17.00;92.70
47368;DHT22;34646;47.964;7.982;2023-04-24T20:06:23;16.70;92.60
47368;DHT22;34646;47.964;7.982;2023-04-24T20:12:23;16.80;92.70
47368;DHT22;34646;47.964;7.982;2023-04-24T20:24:25;16.90;92.70
47368;DHT22;34646;47.964;7.982;2023-04-24T20:30:26;16.60;92.60
47368;DHT22;34646;47.964;7.982;2023-04-24T20:36:27;16.90;92.70
47368;DHT22;34646;47.964;7.982;2023-04-24T20:42:28;16.70;92.60
47368;DHT22;34646;47.964;7.982;2023-04-24T20:48:29;16.60;87.70
47368;DHT22;34646;47.964;7.982;2023-04-24T21:00:31;16.70;92.60
47368;DHT22;34646;47.964;7.982;2023-04-24T21:06:32;16.40;92.50
47368;DHT22;34646;47.964;7.982;2023-04-24T21:12:32;16.50;92.50
47368;DHT22;34646;47.964;7.982;2023-04-24T21:18:33;16.50;88.90
47368;DHT22;34646;47.964;7.982;2023-04-24T21:24:34;16.70;92.50
47368;DHT22;34646;47.964;7.982;2023-04-24T21:30:36;16.60;91.40
47368;DHT22;34646;47.964;7.982;2023-04-24T21:36:37;16.80;92.60
47368;DHT22;34646;47.964;7.982;2023-04-24T21:42:38;16.30;92.40
47368;DHT22;34646;47.964;7.982;2023-04-24T21:48:39;16.60;92.50
47368;DHT22;34646;47.964;7.982;2023-04-24T21:54:39;16.70;92.50
47368;DHT22;34646;47.964;7.982;2023-04-24T22:00:40;15.90;92.30
47368;DHT22;34646;47.964;7.982;2023-04-24T22:06:41;16.30;92.40
47368;DHT22;34646;47.964;7.982;2023-04-24T22:12:42;16.50;92.50
47368;DHT22;34646;47.964;7.982;2023-04-24T22:18:44;16.20;92.40
47368;DHT22;34646;47.964;7.982;2023-04-24T22:24:44;16.40;92.50
47368;DHT22;34646;47.964;7.982;2023-04-24T22:30:45;16.40;92.50
47368;DHT22;34646;47.964;7.982;2023-04-24T22:36:45;16.40;92.50
47368;DHT22;34646;47.964;7.982;2023-04-24T22:42:46;16.50;92.50
47368;DHT22;34646;47.964;7.982;2023-04-24T22:48:47;16.30;90.00
47368;DHT22;34646;47.964;7.982;2023-04-24T22:54:48;16.00;92.40
47368;DHT22;34646;47.964;7.982;2023-04-24T23:00:49;16.10;92.40
47368;DHT22;34646;47.964;7.982;2023-04-24T23:06:50;16.00;92.40
47368;DHT22;34646;47.964;7.982;2023-04-24T23:12:50;16.30;92.50
47368;DHT22;34646;47.964;7.982;2023-04-24T23:18:51;16.10;88.80
47368;DHT22;34646;47.964;7.982;2023-04-24T23:24:52;16.50;92.50
47368;DHT22;34646;47.964;7.982;2023-04-24T23:30:52;16.10;92.40
47368;DHT22;34646;47.964;7.982;2023-04-24T23:36:54;16.30;92.50
47368;DHT22;34646;47.964;7.982;2023-04-24T23:48:56;16.40;87.00
47368;DHT22;34646;47.964;7.982;2023-04-24T23:54:56;16.10;92.40
